Time;durP1;ratioP1;P1;durP2;ratioP2;P2;SDS_P1;SDS_P2;PMS_P1;PMS_P2;Temp;Humidity;BMP_temperature;BMP_pressure;BME280_temperature;BME280_humidity;BME280_pressure;Samples;Min_cycle;Max_cycle;Signal;HPM_P1;HPM_P2
2021/08/02 00:01:37;;;;;;;5.10;2.07;;;27.00;55.50;;;;;;5063009;28;20436;-88
2021/08/02 00:04:09;;;;;;;3.53;2.10;;;27.00;55.50;;;;;;5066939;28;20461;-88
2021/08/02 00:06:43;;;;;;;6.43;1.57;;;26.90;55.50;;;;;;5067317;28;20436;-80
2021/08/02 00:09:11;;;;;;;8.67;1.90;;;26.90;55.50;;;;;;5066224;28;20425;-81
2021/08/02 00:11:40;;;;;;;10.30;1.93;;;26.90;55.50;;;;;;5063763;28;20542;-81
2021/08/02 00:14:12;;;;;;;7.40;1.90;;;26.90;55.50;;;;;;5066335;28;20426;-85
2021/08/02 00:16:41;;;;;;;5.27;1.83;;;26.80;55.60;;;;;;5064023;28;20452;-85
2021/08/02 00:19:09;;;;;;;4.07;1.57;;;26.80;55.60;;;;;;5066405;28;20539;-88
2021/08/02 00:21:38;;;;;;;2.63;1.70;;;26.80;55.60;;;;;;5066350;28;20415;-85
2021/08/02 00:24:06;;;;;;;10.63;1.90;;;26.70;55.50;;;;;;5066171;28;20438;-87
2021/08/02 00:26:34;;;;;;;5.53;1.50;;;26.80;55.60;;;;;;5065858;28;20445;-82
2021/08/02 00:29:03;;;;;;;2.50;1.73;;;26.70;55.50;;;;;;5066791;28;20452;-82
2021/08/02 00:31:32;;;;;;;12.37;1.90;;;26.80;55.50;;;;;;5065934;28;20408;-87
2021/08/02 00:34:03;;;;;;;3.00;1.93;;;26.80;55.40;;;;;;5066259;28;20436;-87
2021/08/02 00:36:34;;;;;;;4.40;1.87;;;26.80;55.40;;;;;;5065919;28;20404;-87
2021/08/02 00:39:04;;;;;;;1.50;1.40;;;26.80;55.30;;;;;;5066212;28;20499;-86
2021/08/02 00:41:57;;;;;;;2.27;1.77;;;26.80;55.40;;;;;;5066296;28;20408;-85
2021/08/02 00:45:02;;;;;;;5.00;1.90;;;26.80;55.40;;;;;;5059342;28;20489;-85
2021/08/02 00:47:36;;;;;;;2.17;1.97;;;26.70;55.40;;;;;;5003886;28;20490;-85
2021/08/02 00:50:05;;;;;;;2.30;1.80;;;26.70;55.30;;;;;;5056861;28;20489;-85
2021/08/02 00:52:34;;;;;;;1.90;1.70;;;26.70;55.30;;;;;;5066022;28;20407;-85
2021/08/02 00:55:04;;;;;;;8.63;1.63;;;26.70;55.30;;;;;;5066593;28;20453;-85
2021/08/02 00:57:34;;;;;;;1.70;1.60;;;26.70;55.30;;;;;;5066467;28;20479;-85
2021/08/02 01:00:06;;;;;;;1.70;1.60;;;26.70;55.30;;;;;;5065860;28;20447;-85
2021/08/02 01:02:37;;;;;;;4.03;1.93;;;26.70;55.30;;;;;;5066017;28;20446;-85
2021/08/02 01:05:10;;;;;;;1.90;1.80;;;26.70;55.20;;;;;;5066529;28;20441;-87
2021/08/02 01:07:41;;;;;;;2.97;1.70;;;26.60;55.20;;;;;;5066214;28;20454;-87
2021/08/02 01:10:10;;;;;;;1.73;1.60;;;26.70;55.20;;;;;;5065785;28;20426;-81
2021/08/02 01:12:38;;;;;;;3.30;2.00;;;26.60;55.30;;;;;;5065024;28;20409;-80
2021/08/02 01:15:07;;;;;;;1.87;1.60;;;26.60;55.20;;;;;;5065986;28;20448;-81
2021/08/02 01:17:36;;;;;;;1.70;1.60;;;26.60;55.30;;;;;;5057137;28;20507;-81
2021/08/02 01:20:05;;;;;;;1.97;1.70;;;26.60;55.30;;;;;;5065492;28;20533;-81
2021/08/02 01:22:35;;;;;;;2.37;1.50;;;26.60;55.30;;;;;;5065365;28;20445;-81
2021/08/02 01:25:55;;;;;;;1.60;1.50;;;26.60;55.20;;;;;;5065648;28;20442;-82
2021/08/02 01:29:01;;;;;;;2.83;1.87;;;26.60;55.30;;;;;;5065386;28;20524;-82
2021/08/02 01:31:29;;;;;;;2.60;1.40;;;26.60;55.40;;;;;;5064941;28;20499;-82
2021/08/02 01:33:58;;;;;;;1.60;1.50;;;26.50;55.30;;;;;;5064929;28;20533;-82
2021/08/02 01:36:27;;;;;;;2.90;1.60;;;26.50;55.40;;;;;;5065647;28;20545;-82
2021/08/02 01:38:57;;;;;;;4.07;1.70;;;26.50;55.30;;;;;;5064462;28;20461;-82
2021/08/02 01:41:26;;;;;;;3.50;1.53;;;26.50;55.30;;;;;;5064698;28;20510;-81
2021/08/02 01:43:54;;;;;;;1.50;1.40;;;26.50;55.30;;;;;;5060373;28;20524;-81
2021/08/02 01:46:25;;;;;;;1.40;1.30;;;26.50;55.30;;;;;;5064018;28;20496;-81
2021/08/02 01:49:01;;;;;;;1.93;1.50;;;26.50;55.20;;;;;;5064006;28;20434;-85
2021/08/02 01:51:35;;;;;;;1.87;1.57;;;26.50;55.20;;;;;;5064711;28;20433;-85
2021/08/02 01:54:09;;;;;;;2.90;1.50;;;26.50;55.20;;;;;;5064942;28;20441;-87
2021/08/02 01:56:38;;;;;;;1.90;1.47;;;26.50;55.20;;;;;;5064907;28;20552;-83
2021/08/02 01:59:08;;;;;;;2.00;1.43;;;26.50;55.20;;;;;;5069087;28;20573;-88
2021/08/02 02:01:46;;;;;;;2.80;1.60;;;26.50;55.10;;;;;;5064683;28;20424;-81
2021/08/02 02:04:19;;;;;;;2.67;1.63;;;26.50;55.20;;;;;;5064673;28;20440;-84
2021/08/02 02:06:48;;;;;;;4.10;1.60;;;26.50;55.10;;;;;;5064211;28;20481;-81
2021/08/02 02:09:18;;;;;;;1.87;1.77;;;26.50;55.20;;;;;;5064046;28;20397;-86
2021/08/02 02:11:49;;;;;;;1.80;1.70;;;26.50;55.10;;;;;;5063655;28;20451;-86
2021/08/02 02:14:22;;;;;;;2.10;1.80;;;26.40;55.10;;;;;;5064142;28;20396;-81
2021/08/02 02:16:50;;;;;;;1.50;1.40;;;26.40;55.00;;;;;;5064676;28;20505;-82
2021/08/02 02:19:21;;;;;;;1.60;1.50;;;26.40;55.20;;;;;;5064761;28;20554;-81
2021/08/02 02:21:49;;;;;;;2.10;1.57;;;26.40;55.20;;;;;;5064347;28;20438;-85
2021/08/02 02:24:19;;;;;;;1.57;1.47;;;26.40;55.10;;;;;;5064218;28;20570;-85
2021/08/02 02:26:47;;;;;;;1.60;1.30;;;26.40;55.10;;;;;;5063612;28;20445;-85
2021/08/02 02:29:16;;;;;;;2.07;1.23;;;26.40;55.10;;;;;;5064459;28;20397;-87
2021/08/02 02:31:46;;;;;;;2.03;1.80;;;26.40;55.10;;;;;;5064998;28;20423;-87
2021/08/02 02:34:15;;;;;;;1.30;1.30;;;26.40;55.00;;;;;;5067449;28;20434;-86
2021/08/02 02:36:43;;;;;;;3.17;1.70;;;26.40;55.00;;;;;;5054950;28;20513;-82
2021/08/02 02:39:11;;;;;;;2.57;1.40;;;26.40;55.10;;;;;;5067326;28;20456;-85
2021/08/02 02:41:41;;;;;;;1.60;1.50;;;26.40;54.90;;;;;;5065941;28;20419;-81
2021/08/02 02:44:12;;;;;;;1.67;1.57;;;26.40;55.00;;;;;;5069761;28;20415;-81
2021/08/02 02:46:40;;;;;;;2.50;1.40;;;26.40;55.00;;;;;;5062335;28;20453;-81
2021/08/02 02:49:08;;;;;;;1.63;1.53;;;26.40;55.00;;;;;;5067920;28;20442;-85
2021/08/02 02:51:39;;;;;;;3.23;1.60;;;26.40;55.00;;;;;;5061187;28;20433;-85
2021/08/02 02:54:07;;;;;;;1.50;1.40;;;26.40;55.10;;;;;;5064099;28;20485;-86
2021/08/02 02:56:35;;;;;;;1.60;1.50;;;26.40;55.10;;;;;;5072257;28;20433;-81
2021/08/02 02:59:04;;;;;;;5.40;1.70;;;26.40;55.00;;;;;;5082806;28;20518;-81
2021/08/02 03:01:37;;;;;;;1.43;1.33;;;26.40;55.00;;;;;;5082923;28;20415;-81
2021/08/02 03:04:05;;;;;;;1.30;1.30;;;26.40;55.10;;;;;;5083638;28;20434;-80
2021/08/02 03:06:33;;;;;;;3.40;1.50;;;26.30;55.00;;;;;;5083768;28;20514;-81
2021/08/02 03:09:01;;;;;;;1.37;1.27;;;26.30;55.00;;;;;;5082963;28;20469;-81
2021/08/02 03:11:29;;;;;;;4.80;1.30;;;26.30;55.10;;;;;;5083850;28;20427;-81
2021/08/02 03:13:57;;;;;;;1.33;1.33;;;26.30;55.00;;;;;;5084564;28;20445;-81
2021/08/02 03:16:27;;;;;;;3.83;1.57;;;26.30;55.00;;;;;;5083602;28;20437;-85
2021/08/02 03:18:55;;;;;;;1.23;1.13;;;26.30;55.10;;;;;;5083507;28;20427;-85
2021/08/02 03:21:23;;;;;;;1.30;1.20;;;26.30;55.00;;;;;;5083277;28;20593;-87
2021/08/02 03:23:58;;;;;;;1.60;1.50;;;26.30;55.00;;;;;;5083652;28;20455;-81
2021/08/02 03:26:28;;;;;;;1.63;1.53;;;26.30;54.90;;;;;;5084413;28;20471;-81
2021/08/02 03:28:59;;;;;;;1.50;1.40;;;26.30;54.90;;;;;;5083742;28;20533;-81
2021/08/02 03:31:31;;;;;;;1.47;1.37;;;26.30;55.00;;;;;;5083386;28;20441;-81
2021/08/02 03:34:00;;;;;;;1.40;1.30;;;26.30;54.90;;;;;;5082166;28;20531;-81
2021/08/02 03:36:29;;;;;;;1.77;1.67;;;26.30;54.90;;;;;;5063962;28;20445;-81
2021/08/02 03:38:57;;;;;;;1.40;1.30;;;26.30;54.90;;;;;;5066967;28;20412;-81
2021/08/02 03:41:25;;;;;;;1.33;1.23;;;26.30;54.90;;;;;;5066813;28;20495;-81
2021/08/02 03:43:53;;;;;;;1.83;1.47;;;26.30;55.00;;;;;;5071097;28;20426;-81
2021/08/02 03:46:21;;;;;;;3.10;1.40;;;26.30;54.90;;;;;;5067292;28;20417;-87
2021/08/02 03:48:50;;;;;;;1.63;1.30;;;26.30;55.00;;;;;;5067688;28;20416;-85
2021/08/02 03:51:18;;;;;;;1.30;1.20;;;26.30;55.00;;;;;;5066895;28;20452;-86
2021/08/02 03:53:48;;;;;;;1.40;1.30;;;26.20;55.00;;;;;;5067507;28;20413;-86
2021/08/02 03:56:17;;;;;;;1.80;1.37;;;26.20;54.90;;;;;;5066925;28;20412;-85
2021/08/02 03:58:47;;;;;;;1.40;1.20;;;26.20;54.90;;;;;;5067067;28;20469;-81
2021/08/02 04:01:16;;;;;;;2.10;1.27;;;26.20;54.90;;;;;;5063037;28;20440;-81
2021/08/02 04:03:44;;;;;;;1.80;1.40;;;26.20;55.00;;;;;;5073593;28;20415;-81
2021/08/02 04:06:13;;;;;;;2.40;1.50;;;26.20;55.00;;;;;;5064033;28;20487;-81
2021/08/02 04:08:42;;;;;;;3.47;1.20;;;26.30;54.90;;;;;;5047081;28;20424;-81
2021/08/02 04:11:10;;;;;;;1.30;1.20;;;26.20;54.90;;;;;;5046729;28;20449;-81
2021/08/02 04:13:38;;;;;;;1.50;1.40;;;26.20;54.90;;;;;;5046630;28;20446;-81
2021/08/02 04:16:06;;;;;;;6.00;1.50;;;26.20;55.00;;;;;;5046227;28;20537;-85
2021/08/02 04:18:34;;;;;;;1.57;1.47;;;26.20;54.90;;;;;;5046593;28;20449;-87
2021/08/02 04:21:02;;;;;;;3.13;1.37;;;26.20;55.00;;;;;;5046301;28;20539;-81
2021/08/02 04:23:31;;;;;;;1.50;1.40;;;26.20;55.00;;;;;;5046382;28;20417;-81
2021/08/02 04:25:59;;;;;;;2.13;1.13;;;26.20;54.90;;;;;;5046282;28;20506;-81
2021/08/02 04:28:27;;;;;;;1.40;1.30;;;26.20;54.90;;;;;;5046564;28;20418;-81
2021/08/02 04:30:55;;;;;;;1.43;1.33;;;26.20;55.00;;;;;;5046176;28;20481;-81
2021/08/02 04:33:23;;;;;;;1.87;1.30;;;26.20;55.00;;;;;;5046542;28;20492;-81
2021/08/02 04:35:51;;;;;;;1.43;1.10;;;26.20;54.90;;;;;;5063451;28;20495;-81
2021/08/02 04:38:19;;;;;;;1.50;1.40;;;26.20;55.00;;;;;;5066414;28;20443;-81
2021/08/02 04:40:50;;;;;;;1.30;1.13;;;26.20;55.50;;;;;;5066572;28;20436;-86
2021/08/02 04:43:18;;;;;;;1.07;1.07;;;26.20;54.90;;;;;;5066116;28;20413;-86
2021/08/02 04:45:46;;;;;;;2.33;1.73;;;26.20;55.00;;;;;;5066633;28;20479;-85
2021/08/02 04:48:14;;;;;;;1.47;1.30;;;26.20;54.90;;;;;;5066041;28;20530;-87
2021/08/02 04:50:43;;;;;;;1.10;1.10;;;26.20;54.90;;;;;;5066750;28;20470;-81
2021/08/02 04:53:11;;;;;;;1.60;1.50;;;26.20;54.90;;;;;;5066018;28;20444;-87
2021/08/02 04:55:39;;;;;;;2.60;1.50;;;26.20;54.80;;;;;;5066214;28;20424;-81
2021/08/02 04:58:08;;;;;;;1.47;1.13;;;26.20;54.90;;;;;;5066032;28;20447;-81
2021/08/02 05:00:37;;;;;;;1.27;1.17;;;26.20;54.90;;;;;;5065977;28;20517;-87
2021/08/02 05:03:05;;;;;;;1.27;1.17;;;26.20;54.90;;;;;;5065784;28;20400;-81
2021/08/02 05:05:34;;;;;;;1.80;1.20;;;26.20;54.90;;;;;;5052513;28;20409;-85
2021/08/02 05:08:02;;;;;;;1.73;1.33;;;26.20;54.80;;;;;;5046197;28;20417;-86
2021/08/02 05:10:32;;;;;;;1.50;1.40;;;26.30;54.90;;;;;;5046139;28;20435;-86
2021/08/02 05:13:00;;;;;;;1.10;1.10;;;26.20;54.90;;;;;;5045667;28;20453;-81
2021/08/02 05:15:30;;;;;;;1.50;1.40;;;26.20;54.90;;;;;;5045632;28;20421;-81
2021/08/02 05:17:58;;;;;;;1.30;1.20;;;26.20;54.90;;;;;;5046008;28;20413;-81
2021/08/02 05:20:26;;;;;;;1.37;1.27;;;26.20;54.90;;;;;;5045781;28;20486;-85
2021/08/02 05:22:54;;;;;;;1.27;1.17;;;26.30;55.00;;;;;;5045793;28;20529;-81
2021/08/02 05:25:22;;;;;;;1.67;1.10;;;26.20;54.90;;;;;;5045893;28;20461;-80
2021/08/02 05:27:50;;;;;;;1.53;1.10;;;26.30;54.90;;;;;;5045859;28;20553;-85
2021/08/02 05:30:21;;;;;;;1.53;1.40;;;26.20;54.90;;;;;;5044852;28;20511;-80
2021/08/02 05:32:51;;;;;;;2.30;1.10;;;26.20;54.80;;;;;;5045426;28;20470;-81
2021/08/02 05:35:19;;;;;;;2.30;1.10;;;26.20;54.80;;;;;;5045822;28;20437;-81
2021/08/02 05:37:47;;;;;;;1.20;1.10;;;26.20;54.80;;;;;;5045495;28;20445;-80
2021/08/02 05:40:15;;;;;;;3.03;1.30;;;26.20;54.80;;;;;;5044860;28;20405;-81
2021/08/02 05:42:43;;;;;;;1.40;1.30;;;26.30;54.90;;;;;;5045697;28;20406;-80
2021/08/02 05:45:11;;;;;;;2.03;1.30;;;26.20;54.80;;;;;;5045618;28;20455;-80
2021/08/02 05:47:39;;;;;;;2.73;1.33;;;26.20;54.80;;;;;;5045685;28;20398;-80
2021/08/02 05:50:10;;;;;;;2.13;1.10;;;26.20;54.80;;;;;;5045394;28;20432;-80
2021/08/02 05:52:38;;;;;;;1.40;1.30;;;26.20;54.80;;;;;;5044711;28;20409;-80
2021/08/02 05:55:10;;;;;;;3.70;1.47;;;26.20;54.80;;;;;;5044644;28;20409;-80
2021/08/02 05:57:38;;;;;;;1.40;1.30;;;26.30;54.70;;;;;;5044551;28;20417;-80
2021/08/02 06:00:10;;;;;;;1.27;1.20;;;26.30;54.80;;;;;;5044662;28;20460;-81
2021/08/02 06:02:38;;;;;;;1.30;1.20;;;26.30;54.80;;;;;;5044578;28;20466;-80
2021/08/02 06:05:09;;;;;;;4.10;1.10;;;26.30;54.80;;;;;;5044763;28;20413;-84
2021/08/02 06:07:42;;;;;;;2.83;1.20;;;26.30;54.80;;;;;;5044869;28;20624;-81
2021/08/02 06:10:10;;;;;;;3.13;1.20;;;26.30;54.70;;;;;;5044825;28;20463;-80
2021/08/02 06:12:41;;;;;;;1.87;1.37;;;26.30;54.60;;;;;;5044430;28;20496;-81
2021/08/02 06:15:11;;;;;;;1.70;1.43;;;26.40;54.70;;;;;;5044488;28;20454;-81
2021/08/02 06:17:39;;;;;;;1.07;1.07;;;26.40;54.70;;;;;;5044639;28;20496;-81
2021/08/02 06:20:12;;;;;;;1.20;1.10;;;26.40;54.70;;;;;;5044673;28;20449;-80
2021/08/02 06:22:40;;;;;;;1.33;1.20;;;26.40;54.70;;;;;;5044248;28;20543;-81
2021/08/02 06:25:09;;;;;;;1.50;1.40;;;26.40;54.60;;;;;;5044575;28;20417;-81
2021/08/02 06:27:40;;;;;;;1.30;1.20;;;26.50;54.60;;;;;;5045173;28;20458;-80
2021/08/02 06:30:09;;;;;;;1.17;1.17;;;26.40;54.50;;;;;;5045022;28;20493;-81
2021/08/02 06:32:37;;;;;;;1.57;1.47;;;26.40;54.50;;;;;;5044596;28;20498;-81
2021/08/02 06:35:06;;;;;;;1.27;1.20;;;26.50;54.50;;;;;;5044452;28;20521;-80
2021/08/02 06:37:38;;;;;;;1.67;1.20;;;26.50;54.60;;;;;;5044476;28;20508;-80
2021/08/02 06:40:09;;;;;;;1.43;1.30;;;26.50;54.50;;;;;;5044508;28;20413;-80
2021/08/02 06:42:37;;;;;;;1.83;1.33;;;26.50;54.60;;;;;;5043987;28;20523;-80
2021/08/02 06:45:06;;;;;;;1.43;1.10;;;26.50;54.40;;;;;;5044096;28;20461;-80
2021/08/02 06:47:34;;;;;;;1.20;1.10;;;26.50;54.50;;;;;;5043868;28;20471;-80
2021/08/02 06:50:02;;;;;;;1.40;1.30;;;26.50;54.50;;;;;;5043966;28;20450;-80
2021/08/02 06:52:30;;;;;;;1.20;1.10;;;26.60;54.50;;;;;;5043605;28;20491;-80
2021/08/02 06:55:02;;;;;;;2.40;1.20;;;26.60;54.30;;;;;;5043846;28;20469;-81
2021/08/02 06:57:30;;;;;;;3.63;1.37;;;26.60;54.30;;;;;;5044450;28;20440;-80
2021/08/02 07:00:00;;;;;;;1.40;1.30;;;26.60;54.30;;;;;;5044695;28;20409;-81
2021/08/02 07:02:28;;;;;;;1.63;1.33;;;26.60;54.20;;;;;;5043652;28;20445;-81
2021/08/02 07:04:57;;;;;;;1.63;1.30;;;26.60;54.30;;;;;;5052263;28;20400;-81
2021/08/02 07:07:25;;;;;;;1.20;1.20;;;26.70;54.30;;;;;;5064183;28;20541;-80
2021/08/02 07:09:52;;;;;;;2.27;0.93;;;26.70;54.00;;;;;;5064602;28;20522;-81
2021/08/02 07:12:22;;;;;;;1.37;1.20;;;26.70;54.10;;;;;;5069006;28;20433;-81
2021/08/02 07:14:50;;;;;;;1.43;1.33;;;26.70;54.10;;;;;;5071061;28;20430;-81
2021/08/02 07:17:18;;;;;;;1.60;1.50;;;26.70;54.20;;;;;;5070777;28;20408;-81
2021/08/02 07:19:46;;;;;;;2.37;1.23;;;26.70;54.20;;;;;;5070561;28;20420;-82
2021/08/02 07:22:14;;;;;;;1.83;1.50;;;26.70;54.10;;;;;;5070454;28;20443;-80
2021/08/02 07:24:42;;;;;;;3.37;1.30;;;26.70;54.10;;;;;;5070875;28;20473;-87
2021/08/02 07:27:10;;;;;;;1.43;1.33;;;26.80;54.20;;;;;;5070950;28;20424;-87
2021/08/02 07:29:39;;;;;;;1.57;1.47;;;26.80;54.10;;;;;;5070803;28;20433;-84
2021/08/02 07:32:08;;;;;;;1.53;1.43;;;26.80;54.00;;;;;;5067650;28;20781;-86
2021/08/02 07:34:36;;;;;;;1.47;1.10;;;26.80;54.50;;;;;;5068859;28;20431;-86
2021/08/02 07:37:04;;;;;;;1.40;1.30;;;26.80;53.90;;;;;;5070301;28;20400;-84
2021/08/02 07:39:33;;;;;;;1.40;1.30;;;26.90;53.90;;;;;;5067279;28;20464;-84
2021/08/02 07:42:01;;;;;;;1.43;1.30;;;26.90;53.80;;;;;;5070443;28;20467;-87
2021/08/02 07:44:29;;;;;;;1.43;1.30;;;26.90;53.90;;;;;;5065292;28;20450;-88
2021/08/02 07:46:58;;;;;;;1.33;1.13;;;27.00;53.80;;;;;;5071166;28;20486;-87
2021/08/02 07:49:30;;;;;;;1.43;1.30;;;27.00;53.90;;;;;;5069883;28;20445;-80
2021/08/02 07:51:59;;;;;;;4.30;1.20;;;27.00;53.70;;;;;;5070076;28;20474;-86
2021/08/02 07:54:27;;;;;;;1.50;1.40;;;27.00;53.60;;;;;;5070306;28;20420;-87
2021/08/02 07:56:57;;;;;;;1.73;1.30;;;27.00;53.70;;;;;;5070312;28;20453;-80
2021/08/02 07:59:25;;;;;;;1.83;1.53;;;27.00;53.60;;;;;;5070244;28;20400;-87
2021/08/02 08:01:53;;;;;;;1.50;1.40;;;27.00;53.60;;;;;;5069304;28;20436;-79
2021/08/02 08:04:23;;;;;;;1.30;1.30;;;27.00;53.50;;;;;;5069715;28;20404;-84
2021/08/02 08:06:51;;;;;;;1.63;1.40;;;27.10;53.50;;;;;;5070035;28;20408;-81
2021/08/02 08:09:19;;;;;;;1.60;1.50;;;27.20;53.40;;;;;;5069751;28;20409;-80
2021/08/02 08:11:47;;;;;;;1.50;1.30;;;27.20;53.30;;;;;;5069908;28;20400;-80
2021/08/02 08:14:15;;;;;;;1.50;1.40;;;27.30;53.30;;;;;;5069653;28;20469;-80
2021/08/02 08:16:43;;;;;;;3.53;1.23;;;27.30;53.10;;;;;;5069795;28;20453;-80
2021/08/02 08:19:11;;;;;;;1.30;1.20;;;27.30;53.00;;;;;;5070273;28;20408;-80
2021/08/02 08:21:41;;;;;;;1.73;1.30;;;27.30;52.90;;;;;;5069951;28;20416;-80
2021/08/02 08:24:09;;;;;;;1.37;1.27;;;27.40;52.90;;;;;;5066331;28;20440;-80
2021/08/02 08:26:37;;;;;;;1.20;1.20;;;27.40;52.80;;;;;;5065945;28;20467;-80
2021/08/02 08:29:05;;;;;;;1.60;1.50;;;27.40;52.80;;;;;;5066471;28;20442;-80
2021/08/02 08:31:34;;;;;;;1.77;1.20;;;27.40;52.80;;;;;;5065530;28;20445;-79
2021/08/02 08:34:02;;;;;;;2.43;1.17;;;27.30;52.80;;;;;;5066546;28;20419;-80
2021/08/02 08:36:33;;;;;;;1.73;1.47;;;27.20;52.90;;;;;;5066302;28;20405;-80
2021/08/02 08:39:03;;;;;;;1.50;1.40;;;27.20;53.10;;;;;;5063300;28;20434;-80
2021/08/02 08:41:31;;;;;;;1.47;1.37;;;27.20;53.20;;;;;;5065885;28;20491;-80
2021/08/02 08:44:01;;;;;;;1.37;1.27;;;27.20;53.20;;;;;;5062776;28;20511;-80
2021/08/02 08:46:30;;;;;;;1.20;1.20;;;27.10;53.00;;;;;;5065756;28;20425;-80
2021/08/02 08:48:59;;;;;;;1.47;1.37;;;27.10;53.00;;;;;;5065370;28;20464;-80
2021/08/02 08:51:29;;;;;;;1.43;1.33;;;27.10;53.10;;;;;;5065828;28;20405;-80
2021/08/02 08:53:57;;;;;;;2.70;1.40;;;27.10;53.20;;;;;;5065980;28;20452;-80
2021/08/02 08:56:26;;;;;;;1.37;1.17;;;27.10;53.10;;;;;;5065981;28;20533;-80
2021/08/02 08:58:54;;;;;;;1.30;1.20;;;27.10;53.20;;;;;;5065768;28;20545;-80
2021/08/02 09:01:27;;;;;;;1.20;1.10;;;27.10;53.10;;;;;;5065256;28;20525;-80
2021/08/02 09:03:55;;;;;;;1.20;1.20;;;27.10;53.00;;;;;;5065729;28;20462;-80
2021/08/02 09:06:30;;;;;;;1.37;1.00;;;27.20;53.00;;;;;;5065891;28;20466;-80
2021/08/02 09:08:58;;;;;;;1.70;1.60;;;27.40;53.20;;;;;;5065473;28;20469;-80
2021/08/02 09:11:30;;;;;;;1.20;1.10;;;27.60;52.90;;;;;;5065225;28;20420;-80
2021/08/02 09:13:58;;;;;;;1.30;1.20;;;27.70;52.30;;;;;;5065121;28;20412;-80
2021/08/02 09:16:27;;;;;;;1.33;1.27;;;27.90;52.10;;;;;;5065289;28;20462;-81
2021/08/02 09:19:02;;;;;;;1.10;1.10;;;28.00;51.60;;;;;;5065368;28;20442;-80
2021/08/02 09:21:40;;;;;;;1.20;1.10;;;28.20;51.60;;;;;;5064698;28;20454;-80
2021/08/02 09:24:09;;;;;;;2.60;1.27;;;28.30;51.70;;;;;;5063729;28;20513;-80
2021/08/02 09:26:39;;;;;;;1.20;1.10;;;28.40;51.30;;;;;;5065599;28;20493;-88
2021/08/02 09:29:09;;;;;;;4.60;1.10;;;28.60;51.30;;;;;;5065721;28;20518;-87
2021/08/02 09:31:40;;;;;;;1.20;1.10;;;28.60;50.80;;;;;;5064964;28;20492;-87
2021/08/02 09:34:08;;;;;;;2.33;1.23;;;28.60;50.60;;;;;;5064587;28;20458;-87
2021/08/02 09:36:38;;;;;;;1.23;1.13;;;28.50;50.30;;;;;;5064848;28;20492;-80
2021/08/02 09:39:07;;;;;;;1.20;1.20;;;28.40;50.20;;;;;;5065188;28;20437;-84
2021/08/02 09:41:35;;;;;;;1.33;1.07;;;28.30;50.50;;;;;;5065136;28;20507;-80
2021/08/02 09:44:05;;;;;;;1.43;1.33;;;28.30;50.80;;;;;;5059668;28;20496;-80
2021/08/02 09:46:33;;;;;;;1.40;1.30;;;28.20;50.90;;;;;;5064412;28;20429;-80
2021/08/02 09:49:02;;;;;;;2.80;1.10;;;28.10;51.00;;;;;;5064785;28;20477;-80
2021/08/02 09:51:40;;;;;;;1.30;1.30;;;28.10;51.10;;;;;;5064647;28;20484;-80
2021/08/02 09:54:08;;;;;;;1.47;1.37;;;28.00;51.00;;;;;;5063241;28;20465;-80
2021/08/02 09:56:36;;;;;;;1.20;1.10;;;28.00;51.10;;;;;;5064436;28;20404;-80
2021/08/02 09:59:09;;;;;;;1.47;1.10;;;28.00;51.20;;;;;;5064472;28;20437;-80
2021/08/02 10:01:37;;;;;;;1.20;1.10;;;27.90;51.40;;;;;;5064653;28;20432;-80
2021/08/02 10:04:26;;;;;;;2.10;1.53;;;27.90;51.50;;;;;;5062324;28;20432;-80
2021/08/02 10:06:55;;;;;;;1.47;1.30;;;27.80;51.40;;;;;;5064595;28;20430;-80
2021/08/02 10:09:23;;;;;;;2.60;1.40;;;27.80;51.50;;;;;;5062238;28;20435;-80
2021/08/02 10:11:55;;;;;;;3.30;1.20;;;27.80;51.50;;;;;;5064341;28;20520;-80
2021/08/02 10:14:30;;;;;;;1.80;1.30;;;27.80;51.80;;;;;;5064251;28;20454;-80
2021/08/02 10:17:00;;;;;;;1.33;1.30;;;27.80;51.60;;;;;;5064601;28;20463;-80
2021/08/02 10:19:35;;;;;;;1.50;1.23;;;27.80;51.60;;;;;;5063796;28;20424;-80
2021/08/02 10:22:04;;;;;;;1.30;1.20;;;27.80;51.50;;;;;;5061382;28;20441;-80
2021/08/02 10:24:32;;;;;;;1.10;1.10;;;27.90;51.60;;;;;;5064088;28;20440;-80
2021/08/02 10:27:02;;;;;;;1.37;1.27;;;27.90;51.60;;;;;;5064046;28;20482;-80
2021/08/02 10:29:39;;;;;;;1.20;1.13;;;28.00;51.60;;;;;;5064115;28;20529;-80
2021/08/02 10:32:07;;;;;;;2.53;1.23;;;28.10;51.30;;;;;;5061679;28;20491;-80
2021/08/02 10:34:36;;;;;;;3.20;1.43;;;28.10;51.40;;;;;;5063937;28;20432;-80
2021/08/02 10:37:05;;;;;;;1.87;1.43;;;28.10;51.40;;;;;;5064506;28;20427;-80
2021/08/02 10:39:33;;;;;;;1.10;1.10;;;28.20;51.70;;;;;;5063906;28;20426;-80
2021/08/02 10:42:05;;;;;;;1.27;1.17;;;28.20;51.20;;;;;;5064189;28;20433;-80
2021/08/02 10:44:55;;;;;;;3.80;1.30;;;28.20;51.10;;;;;;5062208;28;20519;-80
2021/08/02 10:47:23;;;;;;;1.27;1.17;;;28.30;51.80;;;;;;5063621;28;20507;-85
2021/08/02 10:49:54;;;;;;;1.87;1.53;;;28.40;50.90;;;;;;5064855;28;20510;-84
2021/08/02 10:52:28;;;;;;;1.07;1.00;;;28.40;50.70;;;;;;5063957;28;20437;-84
2021/08/02 10:54:57;;;;;;;1.10;1.10;;;28.40;50.70;;;;;;5063867;28;20494;-84
2021/08/02 10:57:25;;;;;;;1.07;1.07;;;28.40;50.70;;;;;;5060917;28;20474;-84
2021/08/02 10:59:54;;;;;;;1.37;1.20;;;28.40;50.80;;;;;;5064096;28;20445;-83
2021/08/02 11:02:23;;;;;;;1.20;1.10;;;28.30;50.80;;;;;;5063513;28;20465;-84
2021/08/02 11:04:54;;;;;;;1.30;1.20;;;28.30;50.70;;;;;;5056656;28;20470;-84
2021/08/02 11:07:23;;;;;;;1.87;0.90;;;28.30;50.60;;;;;;5044234;28;20536;-85
2021/08/02 11:09:51;;;;;;;1.23;1.23;;;28.30;50.50;;;;;;5044488;28;20442;-84
2021/08/02 11:12:21;;;;;;;2.30;1.20;;;28.20;50.50;;;;;;5044158;28;20451;-85
2021/08/02 11:14:50;;;;;;;6.03;1.80;;;28.20;51.00;;;;;;5044711;28;20521;-84
2021/08/02 11:17:23;;;;;;;14.43;2.37;;;28.20;51.10;;;;;;5051923;28;20438;-84
2021/08/02 11:20:05;;;;;;;4.73;2.20;;;28.20;51.60;;;;;;5063484;28;20424;-84
2021/08/02 11:22:33;;;;;;;13.97;2.27;;;28.10;52.00;;;;;;5063460;28;20478;-82
2021/08/02 11:25:01;;;;;;;13.57;1.70;;;28.20;52.30;;;;;;5063591;28;20467;-82
2021/08/02 11:27:29;;;;;;;5.40;1.60;;;28.20;52.60;;;;;;5063766;28;20467;-81
2021/08/02 11:29:57;;;;;;;10.40;2.30;;;28.10;52.60;;;;;;5063805;28;20499;-82
2021/08/02 11:32:27;;;;;;;4.83;1.67;;;28.20;53.00;;;;;;5063507;28;20516;-84
2021/08/02 11:34:57;;;;;;;2.07;1.60;;;28.40;53.20;;;;;;5063464;28;20396;-81
2021/08/02 11:37:25;;;;;;;5.70;1.50;;;28.40;52.50;;;;;;5064003;28;20440;-81
2021/08/02 11:40:01;;;;;;;4.97;1.70;;;28.40;52.50;;;;;;5063802;28;20515;-83
2021/08/02 11:42:30;;;;;;;3.07;1.63;;;28.40;52.40;;;;;;5063318;28;20445;-83
2021/08/02 11:44:58;;;;;;;5.57;1.70;;;28.40;52.40;;;;;;5063427;28;20473;-84
2021/08/02 11:47:29;;;;;;;4.83;1.40;;;28.40;52.50;;;;;;5063272;28;20499;-84
2021/08/02 11:49:58;;;;;;;3.00;1.47;;;28.40;52.10;;;;;;5059069;28;20467;-88
2021/08/02 11:52:30;;;;;;;5.37;1.90;;;28.40;52.00;;;;;;5057272;28;20465;-87
2021/08/02 11:54:59;;;;;;;7.77;1.70;;;28.40;52.00;;;;;;5060542;28;20454;-86
2021/08/02 11:57:29;;;;;;;7.53;1.90;;;28.40;52.40;;;;;;5054798;28;20461;-86
2021/08/02 11:59:57;;;;;;;1.90;1.57;;;28.40;52.50;;;;;;5065119;28;20500;-86
2021/08/02 12:02:33;;;;;;;4.67;1.70;;;28.40;52.50;;;;;;5059390;28;20517;-88
2021/08/02 12:05:08;;;;;;;3.37;1.70;;;28.40;52.40;;;;;;5064335;28;20459;-89
2021/08/02 12:08:09;;;;;;;3.00;1.50;;;28.30;52.40;;;;;;5056351;28;20454;-85
2021/08/02 12:10:38;;;;;;;3.73;1.60;;;28.30;52.50;;;;;;5060068;28;20454;-86
2021/08/02 12:13:11;;;;;;;3.83;1.60;;;28.30;52.40;;;;;;5063833;28;20437;-89
2021/08/02 12:16:05;;;;;;;2.77;1.27;;;28.30;52.50;;;;;;5062069;28;20525;-89
2021/08/02 12:18:43;;;;;;;1.90;1.50;;;28.30;52.70;;;;;;5060503;28;20441;-89
2021/08/02 12:21:17;;;;;;;5.40;1.50;;;28.20;52.60;;;;;;5054982;28;20446;-88
2021/08/02 12:23:45;;;;;;;2.93;1.13;;;28.30;52.80;;;;;;5061796;28;20473;-88
2021/08/02 12:26:17;;;;;;;2.80;1.30;;;28.30;52.60;;;;;;5060939;28;20518;-87
2021/08/02 12:28:46;;;;;;;3.97;1.70;;;28.30;52.70;;;;;;5055368;28;20451;-87
2021/08/02 12:31:16;;;;;;;1.93;1.27;;;28.30;52.60;;;;;;5055988;28;20521;-86
2021/08/02 12:33:47;;;;;;;2.90;1.40;;;28.40;52.60;;;;;;5063723;28;20499;-85
2021/08/02 12:36:16;;;;;;;2.20;1.40;;;28.40;52.30;;;;;;5058780;28;20441;-86
2021/08/02 12:38:46;;;;;;;1.57;1.10;;;28.70;52.70;;;;;;5064090;28;20446;-89
2021/08/02 12:41:14;;;;;;;1.53;1.03;;;28.90;52.20;;;;;;5052336;28;20424;-87
2021/08/02 12:43:44;;;;;;;2.40;1.30;;;29.10;51.40;;;;;;5063349;28;20449;-86
2021/08/02 12:46:12;;;;;;;2.63;1.00;;;29.10;50.30;;;;;;5063652;28;20528;-85
2021/08/02 12:48:56;;;;;;;7.17;1.30;;;29.20;51.20;;;;;;5063366;28;20416;-88
2021/08/02 12:51:25;;;;;;;2.47;1.23;;;29.50;50.20;;;;;;5057426;28;20507;-87
2021/08/02 12:53:54;;;;;;;2.93;1.37;;;29.60;49.80;;;;;;5056692;28;20532;-89
2021/08/02 12:56:21;;;;;;;4.47;1.10;;;29.80;49.50;;;;;;5060375;28;20469;-90
2021/08/02 12:58:51;;;;;;;4.00;1.30;;;29.80;49.00;;;;;;5060297;28;20472;-89
2021/08/02 13:01:20;;;;;;;1.37;0.90;;;29.90;48.80;;;;;;5062552;28;20460;-90